Terminal Aerodrome Forecast
Issued by NWS

Home | Current Version | Previous Version | Text Only | Print | Product List | Glossary On
Versions: 1 2 3 4 5 6 7 8 9 10 11 12 13 14 15 16 17
000
FTUS43 KBIS 030300 AAA
TAFMOT
TAF AMD
KMOT 030311Z 0303/0324 29026G34KT P6SM -SN BKN017 BKN110
     FM030400 30022G30KT P6SM VCSH OVC015
     FM031000 30025G34KT P6SM SCT025 BKN040
     FM031400 29025G35KT P6SM BKN020=

USA.gov is the U.S. government's official web portal to all federal, state and local government web resources and services.